createdAt,value
2023-02-11T00:00:24.872Z,37.70
2023-02-11T00:02:52.175Z,46.07
2023-02-11T00:05:19.811Z,33.67
2023-02-11T00:07:47.220Z,33.03
2023-02-11T00:10:14.514Z,38.88
2023-02-11T00:12:43.278Z,38.65
2023-02-11T00:15:10.579Z,41.47
2023-02-11T00:17:37.975Z,34.63
2023-02-11T00:20:08.182Z,36.72
2023-02-11T00:22:35.820Z,33.45
2023-02-11T00:25:03.076Z,31.85
2023-02-11T00:27:30.658Z,33.53
2023-02-11T00:29:57.947Z,34.97
2023-02-11T00:32:25.415Z,33.80
2023-02-11T00:34:53.284Z,29.63
2023-02-11T00:37:20.849Z,33.53
2023-02-11T00:39:48.355Z,30.07
2023-02-11T00:42:15.653Z,28.25
2023-02-11T00:44:44.608Z,30.05
2023-02-11T00:47:11.997Z,28.45
2023-02-11T00:49:40.559Z,32.53
2023-02-11T00:52:07.837Z,36.27
2023-02-11T00:54:35.132Z,34.53
2023-02-11T00:57:02.587Z,32.03
2023-02-11T00:59:30.047Z,27.58
2023-02-11T01:01:57.316Z,37.90
2023-02-11T01:04:24.607Z,29.93
2023-02-11T01:06:52.770Z,32.72
2023-02-11T01:09:21.253Z,29.05
2023-02-11T01:11:48.561Z,28.65
2023-02-11T01:14:16.042Z,30.83
2023-02-11T01:16:43.559Z,28.17
2023-02-11T01:19:10.882Z,30.30
2023-02-11T01:21:38.757Z,28.35
2023-02-11T01:24:06.351Z,31.67
2023-02-11T01:26:33.862Z,28.65
2023-02-11T01:29:01.343Z,26.90
2023-02-11T01:31:28.717Z,29.13
2023-02-11T01:33:56.046Z,26.88
2023-02-11T01:36:23.420Z,29.58
2023-02-11T01:38:50.785Z,25.48
2023-02-11T01:41:20.717Z,27.67
2023-02-11T01:43:49.299Z,30.13
2023-02-11T01:46:36.560Z,29.23
2023-02-11T01:49:07.430Z,28.08
2023-02-11T01:52:04.102Z,23.90
2023-02-11T01:54:55.362Z,29.93
2023-02-11T01:57:25.256Z,29.80
2023-02-11T02:00:25.145Z,33.88
2023-02-11T02:03:13.188Z,32.08
2023-02-11T02:05:47.799Z,31.02
2023-02-11T02:08:25.747Z,27.13
2023-02-11T02:10:56.810Z,27.35
2023-02-11T02:13:24.295Z,30.08
2023-02-11T02:16:00.826Z,29.33
2023-02-11T02:18:52.620Z,29.50
2023-02-11T02:21:20.150Z,32.63
2023-02-11T02:23:56.273Z,32.95
2023-02-11T02:26:37.246Z,30.52
2023-02-11T02:29:22.585Z,30.83
2023-02-11T02:32:11.730Z,35.17
2023-02-11T02:35:05.762Z,33.27
2023-02-11T02:37:43.530Z,30.67
2023-02-11T02:40:29.939Z,29.10
2023-02-11T02:42:57.352Z,27.45
2023-02-11T02:45:24.584Z,24.20
2023-02-11T02:47:51.978Z,33.00
2023-02-11T02:50:25.069Z,25.13
2023-02-11T02:53:14.024Z,31.05
2023-02-11T02:55:51.853Z,27.88
2023-02-11T02:58:24.101Z,27.60
2023-02-11T03:00:57.536Z,25.57
2023-02-11T03:03:43.431Z,26.25
2023-02-11T03:06:18.153Z,26.88
2023-02-11T03:09:06.270Z,30.63
2023-02-11T03:11:33.632Z,30.02
2023-02-11T03:14:01.262Z,26.70
2023-02-11T03:16:28.794Z,30.88
2023-02-11T03:19:02.155Z,26.45
2023-02-11T03:21:30.937Z,31.10
2023-02-11T03:24:00.534Z,25.15
2023-02-11T03:26:37.207Z,24.77
2023-02-11T03:29:14.523Z,28.08
2023-02-11T03:32:19.471Z,29.08
2023-02-11T03:35:06.666Z,25.25
2023-02-11T03:37:40.977Z,26.13
2023-02-11T03:40:09.277Z,23.20
2023-02-11T03:42:40.335Z,25.40
2023-02-11T03:45:12.645Z,24.63
2023-02-11T03:47:41.704Z,29.73
2023-02-11T03:50:10.180Z,24.65
2023-02-11T03:52:37.489Z,26.93
2023-02-11T03:55:11.619Z,22.75
2023-02-11T03:57:39.031Z,26.13
2023-02-11T04:00:06.848Z,25.60
2023-02-11T04:02:38.765Z,24.00
2023-02-11T04:05:09.578Z,24.50
2023-02-11T04:07:36.902Z,25.42
2023-02-11T04:10:04.696Z,26.50
2023-02-11T04:12:32.131Z,25.92
2023-02-11T04:14:59.366Z,25.80
2023-02-11T04:17:26.634Z,23.70
2023-02-11T04:19:53.880Z,32.47
2023-02-11T04:22:21.254Z,25.48
2023-02-11T04:24:48.528Z,28.42
2023-02-11T04:27:15.896Z,30.80
2023-02-11T04:29:43.196Z,37.33
2023-02-11T04:32:11.516Z,37.58
2023-02-11T04:34:38.913Z,38.47
2023-02-11T04:37:06.305Z,31.25
2023-02-11T04:39:33.589Z,28.85
2023-02-11T04:42:00.984Z,31.57
2023-02-11T04:44:28.313Z,29.73
2023-02-11T04:46:55.633Z,25.40
2023-02-11T04:49:22.921Z,24.75
2023-02-11T04:51:50.341Z,26.98
2023-02-11T04:54:17.805Z,34.67
2023-02-11T04:56:45.148Z,28.83
2023-02-11T04:59:13.446Z,33.03
2023-02-11T05:01:41.004Z,20.38
2023-02-11T05:04:08.338Z,27.85
2023-02-11T05:06:35.739Z,26.47
2023-02-11T05:09:03.073Z,28.25
2023-02-11T05:11:30.462Z,30.58
2023-02-11T05:13:57.818Z,36.80
2023-02-11T05:16:25.273Z,31.95
2023-02-11T05:18:53.823Z,39.00
2023-02-11T05:21:21.260Z,30.83
2023-02-11T05:23:48.567Z,31.92
2023-02-11T05:26:16.049Z,31.60
2023-02-11T05:28:43.378Z,34.33
2023-02-11T05:31:11.225Z,37.93
2023-02-11T05:33:38.610Z,35.80
2023-02-11T05:36:08.456Z,31.02
2023-02-11T05:38:36.128Z,30.40
2023-02-11T05:41:03.859Z,26.88
2023-02-11T05:43:31.303Z,26.47
2023-02-11T05:45:58.620Z,27.98
2023-02-11T05:48:26.007Z,29.10
2023-02-11T05:50:53.297Z,29.65
2023-02-11T05:53:20.582Z,27.85
2023-02-11T05:55:47.970Z,22.90
2023-02-11T05:58:15.542Z,31.83
2023-02-11T06:00:42.834Z,26.90
2023-02-11T06:03:10.173Z,31.60
2023-02-11T06:05:37.450Z,34.17
2023-02-11T06:08:05.190Z,34.80
2023-02-11T06:10:32.447Z,39.60
2023-02-11T06:12:59.752Z,33.15
2023-02-11T06:15:26.993Z,38.85
2023-02-11T06:17:54.332Z,32.10
2023-02-11T06:20:21.660Z,41.47
2023-02-11T06:22:49.025Z,38.00
2023-02-11T06:25:16.317Z,37.45
2023-02-11T06:27:43.732Z,15.00
2023-02-11T06:30:11.409Z,26.27
2023-02-11T06:32:44.335Z,25.47
2023-02-11T06:35:13.112Z,26.08
2023-02-11T06:37:42.022Z,71.13
2023-02-11T06:40:10.439Z,61.42
2023-02-11T06:42:39.425Z,32.13
2023-02-11T06:45:09.533Z,23.23
2023-02-11T06:47:37.518Z,25.38
2023-02-11T06:50:05.973Z,36.95
2023-02-11T06:52:33.900Z,32.53
2023-02-11T06:55:01.270Z,25.40
2023-02-11T06:57:28.643Z,32.43
2023-02-11T06:59:56.018Z,30.02
2023-02-11T07:02:23.410Z,34.25
2023-02-11T07:04:50.686Z,27.73
2023-02-11T07:07:18.122Z,34.42
2023-02-11T07:09:45.420Z,41.20
2023-02-11T07:12:12.751Z,43.63
2023-02-11T07:14:40.481Z,55.22
2023-02-11T07:17:07.801Z,58.50
2023-02-11T07:19:35.089Z,60.22
2023-02-11T07:22:02.456Z,66.30
2023-02-11T07:24:29.794Z,53.92
2023-02-11T07:26:57.164Z,59.25
2023-02-11T07:29:24.422Z,62.53
2023-02-11T07:31:51.785Z,55.10
2023-02-11T07:34:19.099Z,50.10
2023-02-11T07:36:46.572Z,37.30
2023-02-11T07:39:13.835Z,36.88
2023-02-11T07:41:41.181Z,33.60
2023-02-11T07:44:08.684Z,28.15
2023-02-11T07:46:36.126Z,31.40
2023-02-11T07:49:03.739Z,25.13
2023-02-11T07:51:31.267Z,32.95
2023-02-11T07:53:59.659Z,34.35
2023-02-11T07:56:27.542Z,22.52
2023-02-11T07:58:55.043Z,40.20
2023-02-11T08:01:28.430Z,30.95
2023-02-11T08:03:57.543Z,35.80
2023-02-11T08:06:26.232Z,27.92
2023-02-11T08:08:53.604Z,27.30
2023-02-11T08:11:28.283Z,30.30
2023-02-11T08:13:56.042Z,25.20
2023-02-11T08:16:28.166Z,27.60
2023-02-11T08:18:59.835Z,26.70
2023-02-11T08:21:27.353Z,27.50
2023-02-11T08:23:54.918Z,21.67
2023-02-11T08:26:24.715Z,25.75
2023-02-11T08:28:52.892Z,22.55
2023-02-11T08:31:22.297Z,26.95
2023-02-11T08:33:49.811Z,30.35
2023-02-11T08:36:19.059Z,27.07
2023-02-11T08:38:46.297Z,22.52
2023-02-11T08:41:15.069Z,24.75
2023-02-11T08:43:42.642Z,24.90
2023-02-11T08:46:14.144Z,25.42
2023-02-11T08:48:41.693Z,30.57
2023-02-11T08:51:10.247Z,27.05
2023-02-11T08:53:37.765Z,35.03
2023-02-11T08:56:05.461Z,26.60
2023-02-11T08:58:33.068Z,25.08
2023-02-11T09:01:00.419Z,23.93
2023-02-11T09:03:27.871Z,21.65
2023-02-11T09:05:55.233Z,20.83
2023-02-11T09:08:22.674Z,23.92
2023-02-11T09:10:50.358Z,18.83
2023-02-11T09:13:18.038Z,19.43
2023-02-11T09:15:46.506Z,17.17
2023-02-11T09:18:14.152Z,23.35
2023-02-11T09:20:41.560Z,23.88
2023-02-11T09:23:09.761Z,20.02
2023-02-11T09:25:40.386Z,21.67
2023-02-11T09:28:08.538Z,18.98
2023-02-11T09:30:39.075Z,21.80
2023-02-11T09:33:06.550Z,20.20
2023-02-11T09:35:34.680Z,25.52
2023-02-11T09:38:02.012Z,20.70
2023-02-11T09:40:29.315Z,17.73
2023-02-11T09:43:09.142Z,23.05
2023-02-11T09:45:36.685Z,18.85
2023-02-11T09:48:18.510Z,19.58
2023-02-11T09:50:57.433Z,22.23
2023-02-11T09:53:26.275Z,17.25
2023-02-11T09:55:59.699Z,19.35
2023-02-11T09:58:29.013Z,28.33
2023-02-11T10:01:11.564Z,23.63
2023-02-11T10:03:59.351Z,16.27
2023-02-11T10:06:45.842Z,17.05
2023-02-11T10:09:19.301Z,19.00
2023-02-11T10:12:03.212Z,18.45
2023-02-11T10:14:55.649Z,22.85
2023-02-11T10:17:53.840Z,22.17
2023-02-11T10:20:26.679Z,16.38
2023-02-11T10:22:55.326Z,20.48
2023-02-11T10:25:28.869Z,21.42
2023-02-11T10:27:58.212Z,22.95
2023-02-11T10:30:29.478Z,25.10
2023-02-11T10:33:12.097Z,18.45
2023-02-11T10:35:39.416Z,21.73
2023-02-11T10:38:07.811Z,22.00
2023-02-11T10:40:35.161Z,22.15
2023-02-11T10:43:05.081Z,24.23
2023-02-11T10:45:34.321Z,23.25
2023-02-11T10:48:02.271Z,23.58
2023-02-11T10:50:32.709Z,21.52
2023-02-11T10:53:12.237Z,20.05
2023-02-11T10:55:39.731Z,17.30
2023-02-11T10:58:07.018Z,14.60
2023-02-11T11:00:38.172Z,17.45
2023-02-11T11:03:22.282Z,20.00
2023-02-11T11:05:51.249Z,20.17
2023-02-11T11:08:21.526Z,19.50
2023-02-11T11:11:03.854Z,24.77
2023-02-11T11:13:36.016Z,17.27
2023-02-11T11:16:12.260Z,17.98
2023-02-11T11:18:46.253Z,20.15
2023-02-11T11:21:27.343Z,18.90
2023-02-11T11:23:59.492Z,19.38
2023-02-11T11:26:51.059Z,20.58
2023-02-11T11:29:31.420Z,23.20
2023-02-11T11:32:04.935Z,22.15
2023-02-11T11:34:33.227Z,21.03
2023-02-11T11:37:02.500Z,22.55
2023-02-11T11:39:31.413Z,19.02
2023-02-11T11:42:03.342Z,22.63
2023-02-11T11:44:37.532Z,19.75
2023-02-11T11:47:25.600Z,17.87
2023-02-11T11:50:27.843Z,21.33
2023-02-11T11:53:04.612Z,16.77
2023-02-11T11:55:51.719Z,24.00
2023-02-11T11:58:22.789Z,21.10
2023-02-11T12:01:02.129Z,21.30
2023-02-11T12:03:33.326Z,25.70
2023-02-11T12:06:09.364Z,23.42
2023-02-11T12:08:36.641Z,21.73
2023-02-11T12:11:08.096Z,19.75
2023-02-11T12:14:03.390Z,21.27
2023-02-11T12:16:45.472Z,21.90
2023-02-11T12:19:34.791Z,20.65
2023-02-11T12:22:10.613Z,16.48
2023-02-11T12:25:00.403Z,22.08
2023-02-11T12:27:30.718Z,20.47
2023-02-11T12:30:27.073Z,22.05
2023-02-11T12:33:33.039Z,15.35
2023-02-11T12:36:41.899Z,19.17
2023-02-11T12:39:36.581Z,18.08
2023-02-11T12:42:25.458Z,17.87
2023-02-11T12:45:11.023Z,22.92
2023-02-11T12:47:45.908Z,19.48
2023-02-11T12:50:53.646Z,19.85
2023-02-11T12:53:36.154Z,19.92
2023-02-11T12:56:19.999Z,18.70
2023-02-11T12:58:48.004Z,16.13
2023-02-11T13:01:19.570Z,17.08
2023-02-11T13:04:11.773Z,18.20
2023-02-11T13:06:41.956Z,18.15
2023-02-11T13:09:19.010Z,18.67
2023-02-11T13:11:52.148Z,17.15
2023-02-11T13:14:29.240Z,15.77
2023-02-11T13:16:58.591Z,18.98
2023-02-11T13:19:57.120Z,16.67
2023-02-11T13:22:59.408Z,16.50
2023-02-11T13:25:31.578Z,15.85
2023-02-11T13:28:14.533Z,13.18
2023-02-11T13:30:47.292Z,14.90
2023-02-11T13:33:20.107Z,15.32
2023-02-11T13:36:11.881Z,12.57
2023-02-11T13:38:39.380Z,16.73
2023-02-11T13:41:06.933Z,13.57
2023-02-11T13:43:35.444Z,15.93
2023-02-11T13:46:04.732Z,16.20
2023-02-11T13:48:34.909Z,17.57
2023-02-11T13:51:04.625Z,17.70
2023-02-11T13:53:54.754Z,19.13
2023-02-11T13:56:31.103Z,17.27
2023-02-11T13:59:01.905Z,14.25
2023-02-11T14:02:06.602Z,18.43
2023-02-11T14:04:52.771Z,17.92
2023-02-11T14:07:45.551Z,16.45
2023-02-11T14:10:43.833Z,17.27
2023-02-11T14:13:23.573Z,21.27
2023-02-11T14:16:20.378Z,20.00
2023-02-11T14:18:55.859Z,19.55
2023-02-11T14:21:30.434Z,18.00
2023-02-11T14:24:07.198Z,20.05
2023-02-11T14:26:57.921Z,18.23
2023-02-11T14:29:37.376Z,19.80
2023-02-11T14:32:29.675Z,15.52
2023-02-11T14:35:10.810Z,19.33
2023-02-11T14:37:50.886Z,18.65
2023-02-11T14:40:30.768Z,20.88
2023-02-11T14:42:58.876Z,33.10
2023-02-11T14:45:27.678Z,33.83
2023-02-11T14:48:05.724Z,20.10
2023-02-11T14:50:45.522Z,18.38
2023-02-11T14:53:15.824Z,20.67
2023-02-11T14:55:43.659Z,20.60
2023-02-11T14:58:18.321Z,18.50
2023-02-11T15:00:50.060Z,20.98
2023-02-11T15:03:39.823Z,24.45
2023-02-11T15:06:18.466Z,24.55
2023-02-11T15:08:58.373Z,20.93
2023-02-11T15:11:26.066Z,24.63
2023-02-11T15:13:55.510Z,24.30
2023-02-11T15:16:24.004Z,22.83
2023-02-11T15:18:56.215Z,26.17
2023-02-11T15:21:28.758Z,29.77
2023-02-11T15:24:03.536Z,30.02
2023-02-11T15:26:31.030Z,29.17
2023-02-11T15:28:58.303Z,22.30
2023-02-11T15:31:26.793Z,28.45
2023-02-11T15:33:54.420Z,29.23
2023-02-11T15:36:28.377Z,30.73
2023-02-11T15:39:18.567Z,31.38
2023-02-11T15:41:46.030Z,29.13
2023-02-11T15:44:30.456Z,26.85
2023-02-11T15:46:57.899Z,26.27
2023-02-11T15:49:25.772Z,27.92
2023-02-11T15:51:54.105Z,31.35
2023-02-11T15:54:24.139Z,24.48
2023-02-11T15:56:52.092Z,21.17
2023-02-11T15:59:30.705Z,30.03
2023-02-11T16:01:58.734Z,23.17
2023-02-11T16:04:26.798Z,27.55
2023-02-11T16:06:54.817Z,24.27
2023-02-11T16:09:33.372Z,28.90
2023-02-11T16:12:07.637Z,25.47
2023-02-11T16:14:39.488Z,31.98
2023-02-11T16:17:12.553Z,29.90
2023-02-11T16:19:44.423Z,27.10
2023-02-11T16:22:15.117Z,30.42
2023-02-11T16:24:42.431Z,34.43
2023-02-11T16:27:18.802Z,30.77
2023-02-11T16:29:47.840Z,28.70
2023-02-11T16:32:19.181Z,38.78
2023-02-11T16:34:47.931Z,31.98
2023-02-11T16:37:15.288Z,35.57
2023-02-11T16:39:42.587Z,34.78
2023-02-11T16:42:11.347Z,46.88
2023-02-11T16:44:38.782Z,39.20
2023-02-11T16:47:08.178Z,43.35
2023-02-11T16:49:41.155Z,43.03
2023-02-11T16:52:14.527Z,39.60
2023-02-11T16:54:41.952Z,44.20
2023-02-11T16:57:16.048Z,37.78
2023-02-11T16:59:43.789Z,53.47
2023-02-11T17:02:23.628Z,44.67
2023-02-11T17:04:53.494Z,53.97
2023-02-11T17:07:20.957Z,59.42
2023-02-11T17:09:48.320Z,50.10
2023-02-11T17:12:15.684Z,50.50
2023-02-11T17:14:42.954Z,54.50
2023-02-11T17:17:10.958Z,45.58
2023-02-11T17:19:38.327Z,52.92
2023-02-11T17:22:05.914Z,51.20
2023-02-11T17:24:33.215Z,42.40
2023-02-11T17:27:00.609Z,48.40
2023-02-11T17:29:27.945Z,46.97
2023-02-11T17:31:55.572Z,48.17
2023-02-11T17:34:23.172Z,45.85
2023-02-11T17:36:50.716Z,46.85
2023-02-11T17:39:19.364Z,43.17
2023-02-11T17:41:46.735Z,46.55
2023-02-11T17:44:15.631Z,60.22
2023-02-11T17:46:43.267Z,68.88
2023-02-11T17:49:11.825Z,62.85
2023-02-11T17:51:39.487Z,64.40
2023-02-11T17:54:14.744Z,62.65
2023-02-11T17:56:42.274Z,61.10
2023-02-11T17:59:09.983Z,74.60
2023-02-11T18:01:37.868Z,71.53
2023-02-11T18:04:05.879Z,128.73
2023-02-11T18:06:36.362Z,78.40
2023-02-11T18:09:04.558Z,60.97
2023-02-11T18:11:32.787Z,71.47
2023-02-11T18:14:01.234Z,73.75
2023-02-11T18:16:30.084Z,59.77
2023-02-11T18:18:58.163Z,59.63
2023-02-11T18:21:25.794Z,65.47
2023-02-11T18:23:53.361Z,60.22
2023-02-11T18:26:21.917Z,72.68
2023-02-11T18:28:49.404Z,74.00
2023-02-11T18:31:17.336Z,66.60
2023-02-11T18:33:44.997Z,92.72
2023-02-11T18:36:13.917Z,66.15
2023-02-11T18:38:41.507Z,61.22
2023-02-11T18:41:09.012Z,63.03
2023-02-11T18:43:36.658Z,62.72
2023-02-11T18:46:07.980Z,62.63
2023-02-11T18:48:35.544Z,65.50
2023-02-11T18:51:02.877Z,66.03
2023-02-11T18:53:30.264Z,61.97
2023-02-11T18:55:57.577Z,65.03
2023-02-11T18:58:24.988Z,62.03
2023-02-11T19:00:52.251Z,60.72
2023-02-11T19:03:19.624Z,65.35
2023-02-11T19:05:48.162Z,56.43
2023-02-11T19:08:15.786Z,69.45
2023-02-11T19:10:44.325Z,64.03
2023-02-11T19:13:14.660Z,61.90
2023-02-11T19:15:46.183Z,59.88
2023-02-11T19:18:14.391Z,69.93
2023-02-11T19:20:42.833Z,67.22
2023-02-11T19:23:10.468Z,76.65
2023-02-11T19:25:38.045Z,63.72
2023-02-11T19:28:05.524Z,70.07
2023-02-11T19:30:33.025Z,68.33
2023-02-11T19:33:00.468Z,69.00
2023-02-11T19:35:27.782Z,77.68
2023-02-11T19:37:55.176Z,62.50
2023-02-11T19:40:22.919Z,60.72
2023-02-11T19:42:50.563Z,66.53
2023-02-11T19:45:18.227Z,58.20
2023-02-11T19:47:45.549Z,66.60
2023-02-11T19:50:12.976Z,68.13
2023-02-11T19:52:40.905Z,80.57
2023-02-11T19:55:08.475Z,80.80
2023-02-11T19:57:36.678Z,84.32
2023-02-11T20:00:04.562Z,89.55
2023-02-11T20:02:40.118Z,86.53
2023-02-11T20:05:07.845Z,79.57
2023-02-11T20:07:35.422Z,76.77
2023-02-11T20:10:02.820Z,79.65
2023-02-11T20:12:30.126Z,77.90
2023-02-11T20:14:57.701Z,75.60
2023-02-11T20:17:25.133Z,76.75
2023-02-11T20:19:52.829Z,74.27
2023-02-11T20:22:20.228Z,85.25
2023-02-11T20:24:47.574Z,88.82
2023-02-11T20:27:14.887Z,94.20
2023-02-11T20:29:42.316Z,96.35
2023-02-11T20:32:10.963Z,107.63
2023-02-11T20:34:38.371Z,109.38
2023-02-11T20:37:06.874Z,105.18
2023-02-11T20:39:35.681Z,105.32
2023-02-11T20:42:03.049Z,98.57
2023-02-11T20:44:30.376Z,94.33
2023-02-11T20:46:57.700Z,112.30
2023-02-11T20:49:25.212Z,97.53
2023-02-11T20:51:53.976Z,101.97
2023-02-11T20:54:21.904Z,99.47
2023-02-11T20:56:51.278Z,71.93
2023-02-11T20:59:18.985Z,70.07
2023-02-11T21:01:48.780Z,70.95
2023-02-11T21:04:18.590Z,76.80
2023-02-11T21:06:50.785Z,69.72
2023-02-11T21:09:20.021Z,63.60
2023-02-11T21:11:47.671Z,70.25
2023-02-11T21:14:15.409Z,78.30
2023-02-11T21:16:42.772Z,70.85
2023-02-11T21:19:10.197Z,65.20
2023-02-11T21:21:37.648Z,70.13
2023-02-11T21:24:05.822Z,65.53
2023-02-11T21:26:33.595Z,64.15
2023-02-11T21:29:01.804Z,67.32
2023-02-11T21:31:30.122Z,67.43
2023-02-11T21:33:59.545Z,63.40
2023-02-11T21:36:27.743Z,65.40
2023-02-11T21:38:55.238Z,57.70
2023-02-11T21:41:22.646Z,51.08
2023-02-11T21:43:50.628Z,55.22
2023-02-11T21:46:18.406Z,58.47
2023-02-11T21:48:45.905Z,48.38
2023-02-11T21:51:18.001Z,50.67
2023-02-11T21:53:45.596Z,49.25
2023-02-11T21:56:17.247Z,41.08
2023-02-11T21:58:45.402Z,42.47
2023-02-11T22:01:19.009Z,46.83
2023-02-11T22:03:46.607Z,44.88
2023-02-11T22:06:15.834Z,48.22
2023-02-11T22:08:43.292Z,41.97
2023-02-11T22:11:12.347Z,43.57
2023-02-11T22:13:40.163Z,37.13
2023-02-11T22:16:09.437Z,35.42
2023-02-11T22:18:37.128Z,35.33
2023-02-11T22:21:10.325Z,31.50
2023-02-11T22:23:37.822Z,31.23
2023-02-11T22:26:07.120Z,36.05
2023-02-11T22:28:35.544Z,28.58
2023-02-11T22:31:02.940Z,28.77
2023-02-11T22:33:30.407Z,34.45
2023-02-11T22:36:01.891Z,28.00
2023-02-11T22:38:29.766Z,33.45
2023-02-11T22:40:58.478Z,30.55
2023-02-11T22:43:25.977Z,33.10
2023-02-11T22:45:56.413Z,32.33
2023-02-11T22:48:24.092Z,34.43
2023-02-11T22:50:51.367Z,26.88
2023-02-11T22:53:18.815Z,28.40
2023-02-11T22:55:46.105Z,22.08
2023-02-11T22:58:13.421Z,16.40
2023-02-11T23:00:41.139Z,15.90
2023-02-11T23:03:08.828Z,10.10
2023-02-11T23:05:40.020Z,10.40
2023-02-11T23:08:10.932Z,8.88
2023-02-11T23:10:38.716Z,9.05
2023-02-11T23:13:06.522Z,10.43
2023-02-11T23:15:34.014Z,10.30
2023-02-11T23:18:01.316Z,10.25
2023-02-11T23:20:28.707Z,8.93
2023-02-11T23:22:56.020Z,11.63
2023-02-11T23:25:23.370Z,7.47
2023-02-11T23:27:50.589Z,9.32
2023-02-11T23:30:18.495Z,7.78
2023-02-11T23:32:46.220Z,6.95
2023-02-11T23:35:22.003Z,7.28
2023-02-11T23:37:49.655Z,8.63
2023-02-11T23:40:17.489Z,7.20
2023-02-11T23:42:45.700Z,6.93
2023-02-11T23:45:13.061Z,6.72
2023-02-11T23:47:41.711Z,5.65
2023-02-11T23:50:09.986Z,8.30
2023-02-11T23:52:37.306Z,8.20
2023-02-11T23:55:05.002Z,7.07
2023-02-11T23:57:33.336Z,6.40
